Time;durP1;ratioP1;P1;durP2;ratioP2;P2;SDS_P1;SDS_P2;PMS_P1;PMS_P2;Temp;Humidity;BMP_temperature;BMP_pressure;BME280_temperature;BME280_humidity;BME280_pressure;Samples;Min_cycle;Max_cycle;Signal;HPM_P1;HPM_P2
2021/11/19 00:00:12;;;;;;;;;35.60;32.60;;;;;11.87;64.87;102704.56;2090900;28;47539;-60
2021/11/19 00:01:18;;;;;;;;;31.80;28.20;;;;;11.86;64.90;102701.00;2090410;28;47334;-59
2021/11/19 00:02:19;;;;;;;;;33.00;29.40;;;;;11.86;64.90;102701.00;2092913;28;46872;-59
2021/11/19 00:03:20;;;;;;;;;35.25;32.25;;;;;11.87;65.02;102705.44;2095373;27;47049;-60
2021/11/19 00:04:22;;;;;;;;;31.40;30.80;;;;;11.86;64.84;102703.69;2091740;28;47467;-60
2021/11/19 00:05:22;;;;;;;;;31.60;31.00;;;;;11.87;65.00;102704.56;2090092;28;45481;-59
2021/11/19 00:06:23;;;;;;;;;35.75;31.00;;;;;11.86;64.97;102709.00;2090575;28;46433;-59
2021/11/19 00:07:23;;;;;;;;;28.25;26.50;;;;;11.88;64.98;102704.56;2091027;28;48361;-60
2021/11/19 00:08:25;;;;;;;;;32.25;29.25;;;;;11.88;64.84;102709.88;2091044;28;48062;-59
2021/11/19 00:09:27;;;;;;;;;36.60;34.00;;;;;11.87;64.78;102710.78;2091714;28;47129;-58
2021/11/19 00:10:28;;;;;;;;;25.80;25.60;;;;;11.87;64.92;102709.88;2091268;27;46800;-58
2021/11/19 00:11:32;;;;;;;;;35.60;31.60;;;;;11.88;64.77;102711.66;2084901;28;47151;-58
2021/11/19 00:12:33;;;;;;;;;37.20;33.80;;;;;11.86;64.73;102711.66;2089760;28;47363;-59
2021/11/19 00:13:34;;;;;;;;;35.60;31.00;;;;;11.86;65.00;102709.00;2083963;28;47222;-58
2021/11/19 00:14:34;;;;;;;;;34.25;30.50;;;;;11.87;64.79;102709.88;2087748;28;47174;-59
2021/11/19 00:15:36;;;;;;;;;29.25;27.25;;;;;11.87;65.00;102708.09;2091401;28;48640;-59
2021/11/19 00:16:39;;;;;;;;;38.80;32.20;;;;;11.88;64.97;102703.69;2090728;28;47599;-60
2021/11/19 00:17:40;;;;;;;;;38.20;33.00;;;;;11.87;64.82;102705.44;2091372;28;45398;-60
2021/11/19 00:18:41;;;;;;;;;37.00;30.80;;;;;11.87;65.03;102705.44;2099833;27;47613;-59
2021/11/19 00:19:44;;;;;;;;;35.00;31.00;;;;;11.87;64.95;102701.91;2088943;28;47377;-60
2021/11/19 00:20:45;;;;;;;;;31.40;31.00;;;;;11.87;64.96;102700.13;2085557;28;47997;-59
2021/11/19 00:21:45;;;;;;;;;34.50;31.25;;;;;11.87;65.03;102697.47;2086353;28;47431;-60
2021/11/19 00:22:46;;;;;;;;;36.50;31.00;;;;;11.88;64.83;102704.56;2091066;28;48559;-62
2021/11/19 00:23:48;;;;;;;;;35.80;33.20;;;;;11.89;64.84;102705.44;2086526;28;48224;-59
2021/11/19 00:24:49;;;;;;;;;33.80;32.40;;;;;11.89;65.07;102702.78;2083369;28;47280;-60
2021/11/19 00:25:49;;;;;;;;;32.60;30.40;;;;;11.89;64.92;102700.13;2090359;28;47151;-60
2021/11/19 00:26:50;;;;;;;;;29.00;28.75;;;;;11.89;65.02;102701.03;2091624;28;48619;-59
2021/11/19 00:27:51;;;;;;;;;27.50;27.25;;;;;11.89;64.90;102698.34;2088104;28;45030;-60
2021/11/19 00:28:53;;;;;;;;;37.80;32.60;;;;;11.90;64.81;102702.78;2091002;28;47360;-60
2021/11/19 00:29:53;;;;;;;;;18.00;14.20;;;;;11.90;64.92;102692.16;2089015;28;46699;-60
2021/11/19 00:30:54;;;;;;;;;35.50;32.00;;;;;11.90;64.98;102697.47;2092494;28;47116;-60
2021/11/19 00:31:55;;;;;;;;;36.40;31.80;;;;;11.90;64.91;102689.50;2092655;28;45198;-59
2021/11/19 00:32:56;;;;;;;;;32.25;30.00;;;;;11.91;64.83;102693.03;2092715;28;47679;-59
2021/11/19 00:33:57;;;;;;;;;26.60;26.20;;;;;11.91;64.89;102693.94;2092875;28;47412;-60
2021/11/19 00:34:57;;;;;;;;;28.75;25.50;;;;;11.90;64.96;102688.59;2092528;28;45613;-60
2021/11/19 00:35:58;;;;;;;;;30.75;28.75;;;;;11.90;64.55;102689.50;2092766;28;48111;-59
2021/11/19 00:37:00;;;;;;;;;22.25;21.50;;;;;11.91;64.80;102695.69;2092193;28;45243;-60
2021/11/19 00:38:02;;;;;;;;;30.80;25.40;;;;;11.91;64.85;102693.94;2097814;28;47395;-60
2021/11/19 00:39:08;;;;;;;;;34.40;31.20;;;;;11.91;64.79;102691.28;2092608;28;46153;-60
2021/11/19 00:40:15;;;;;;;;;38.60;28.40;;;;;11.92;64.90;102692.16;2100747;28;46472;-59
2021/11/19 00:41:16;;;;;;;;;29.80;29.60;;;;;11.92;64.60;102694.81;2099421;27;47709;-59
2021/11/19 00:42:17;;;;;;;;;38.80;30.60;;;;;11.92;64.66;102693.03;2108842;27;47093;-60
2021/11/19 00:43:18;;;;;;;;;25.75;23.75;;;;;11.92;64.77;102687.72;2109001;27;48088;-61
2021/11/19 00:44:20;;;;;;;;;34.00;31.20;;;;;11.93;64.75;102689.50;2091801;28;48177;-59
2021/11/19 00:45:24;;;;;;;;;32.80;28.80;;;;;11.93;64.79;102684.19;2092333;28;47133;-59
2021/11/19 00:46:24;;;;;;;;;29.40;28.60;;;;;11.93;64.74;102689.50;2092624;28;48543;-60
2021/11/19 00:47:25;;;;;;;;;30.75;28.25;;;;;11.94;64.71;102690.38;2088788;28;46674;-59
2021/11/19 00:48:27;;;;;;;;;31.25;28.75;;;;;11.92;64.91;102690.38;2084203;28;47812;-63
2021/11/19 00:49:31;;;;;;;;;30.40;28.80;;;;;11.93;64.80;102686.84;2084706;28;47764;-60
2021/11/19 00:50:37;;;;;;;;;29.80;28.20;;;;;11.94;64.67;102687.72;2084361;28;48206;-59
2021/11/19 00:51:43;;;;;;;;;29.40;28.20;;;;;11.93;64.69;102689.50;2092223;28;48410;-59
2021/11/19 00:52:44;;;;;;;;;28.60;27.60;;;;;11.94;64.60;102688.66;2091191;28;47385;-59
2021/11/19 00:53:48;;;;;;;;;29.75;27.50;;;;;11.95;64.62;102694.84;2086945;28;46167;-59
2021/11/19 00:54:49;;;;;;;;;38.60;33.80;;;;;11.94;64.77;102693.97;2092536;28;47348;-59
2021/11/19 00:55:50;;;;;;;;;34.00;26.25;;;;;11.95;64.64;102690.41;2092737;28;47264;-59
2021/11/19 00:57:00;;;;;;;;;30.20;26.80;;;;;11.94;64.57;102688.66;2094769;28;46798;-59
2021/11/19 00:58:01;;;;;;;;;28.60;26.60;;;;;11.95;64.72;102685.09;2092438;28;45419;-59
2021/11/19 00:59:03;;;;;;;;;31.20;28.60;;;;;11.95;64.65;102677.13;2091756;28;47018;-59
2021/11/19 01:00:07;;;;;;;;;22.60;18.40;;;;;11.97;64.66;102690.41;2092818;28;48286;-59
2021/11/19 01:01:24;;;;;;;;;27.60;24.40;;;;;11.97;64.74;102685.09;2092252;28;48324;-59
2021/11/19 01:02:26;;;;;;;;;28.60;26.20;;;;;11.98;64.86;102678.91;2092475;28;47302;-59
2021/11/19 01:03:28;;;;;;;;;27.80;24.80;;;;;11.99;64.81;102683.34;2092217;27;47191;-59
2021/11/19 01:04:29;;;;;;;;;29.00;28.00;;;;;12.00;64.72;102679.78;2092875;28;45512;-60
2021/11/19 01:05:30;;;;;;;;;30.00;30.00;;;;;12.01;64.54;102684.22;2092289;28;46693;-59
2021/11/19 01:06:31;;;;;;;;;37.25;31.00;;;;;12.00;64.49;102686.00;2092839;28;45327;-60
2021/11/19 01:07:32;;;;;;;;;31.20;26.40;;;;;11.99;64.53;102683.34;2092468;28;45347;-60
2021/11/19 01:08:34;;;;;;;;;28.40;26.80;;;;;12.01;64.51;102684.22;2100200;27;47082;-59
2021/11/19 01:09:39;;;;;;;;;27.60;27.60;;;;;12.01;64.63;102681.56;2099853;28;48003;-59
2021/11/19 01:10:41;;;;;;;;;29.20;26.40;;;;;12.00;64.59;102682.44;2092549;28;48110;-60
2021/11/19 01:11:43;;;;;;;;;25.80;25.00;;;;;12.01;64.55;102674.47;2092811;27;45408;-59
2021/11/19 01:12:43;;;;;;;;;31.80;26.00;;;;;12.02;64.63;102675.34;2092383;28;47342;-60
2021/11/19 01:13:46;;;;;;;;;29.50;29.50;;;;;12.02;64.53;102686.88;2084219;28;47940;-60
2021/11/19 01:15:02;;;;;;;;;36.80;31.00;;;;;12.02;64.63;102676.25;2083399;28;45339;-60
2021/11/19 01:16:09;;;;;;;;;32.40;27.00;;;;;12.03;64.69;102678.00;2085349;28;47014;-59
2021/11/19 01:17:18;;;;;;;;;24.40;23.60;;;;;12.03;64.32;102677.13;2100252;27;47190;-59
2021/11/19 01:18:34;;;;;;;;;38.00;32.80;;;;;12.03;64.65;102675.34;2100104;27;47381;-60
2021/11/19 01:19:43;;;;;;;;;41.40;34.80;;;;;12.03;64.33;102669.13;2089840;28;47537;-60
2021/11/19 01:21:00;;;;;;;;;47.00;38.60;;;;;12.02;64.28;102673.56;2085239;28;45717;-59
2021/11/19 01:22:08;;;;;;;;;40.80;35.40;;;;;12.02;64.49;102675.34;2084010;28;47271;-59
2021/11/19 01:23:11;;;;;;;;;36.40;32.00;;;;;12.01;64.47;102676.25;2092030;28;47202;-60
2021/11/19 01:24:12;;;;;;;;;43.80;34.40;;;;;12.01;64.29;102671.81;2093864;28;47181;-59
2021/11/19 01:25:15;;;;;;;;;32.00;30.60;;;;;12.02;64.32;102670.91;2089364;27;48659;-60
2021/11/19 01:26:21;;;;;;;;;37.20;31.80;;;;;12.02;64.30;102673.56;2084301;28;46601;-60
2021/11/19 01:27:22;;;;;;;;;31.80;29.20;;;;;12.02;64.23;102667.38;2099367;28;45418;-59
2021/11/19 01:28:23;;;;;;;;;31.20;26.80;;;;;12.01;64.42;102666.47;2096556;27;48014;-60
2021/11/19 01:29:24;;;;;;;;;29.25;29.25;;;;;12.02;64.52;102667.38;2098878;27;47790;-59
2021/11/19 01:30:32;;;;;;;;;32.60;29.00;;;;;12.03;63.94;102663.81;2089818;28;47909;-59
2021/11/19 01:31:37;;;;;;;;;31.40;26.20;;;;;12.03;64.14;102663.81;2088719;28;45540;-60
2021/11/19 01:32:37;;;;;;;;;35.20;31.80;;;;;12.02;64.24;102668.25;2097939;27;46959;-60
2021/11/19 01:33:39;;;;;;;;;30.80;29.40;;;;;12.02;64.33;102668.25;2098498;28;47109;-60
2021/11/19 01:34:40;;;;;;;;;35.60;27.60;;;;;12.02;64.24;102670.91;2095626;28;47283;-59
2021/11/19 01:35:41;;;;;;;;;27.50;23.50;;;;;12.04;64.19;102673.59;2094394;27;45417;-59
2021/11/19 01:36:42;;;;;;;;;26.00;25.40;;;;;12.03;64.18;102670.03;2097058;28;48329;-58
2021/11/19 01:37:43;;;;;;;;;33.50;28.00;;;;;12.04;64.20;102668.25;2095745;28;47410;-60
2021/11/19 01:38:46;;;;;;;;;25.00;23.60;;;;;12.04;64.35;102665.59;2082690;28;45194;-58
2021/11/19 01:39:47;;;;;;;;;28.60;27.60;;;;;12.04;64.22;102662.94;2095815;28;46905;-58
2021/11/19 01:40:53;;;;;;;;;25.40;24.60;;;;;12.03;64.31;102667.38;2097901;27;47729;-59
2021/11/19 01:42:19;;;;;;;;;23.80;22.60;;;;;12.02;64.11;102668.25;2107774;27;48208;-59
2021/11/19 01:43:19;;;;;;;;;25.00;23.00;;;;;12.02;64.31;102670.03;2095001;27;45612;-59
2021/11/19 01:44:23;;;;;;;;;26.75;25.50;;;;;12.01;64.28;102661.16;2091941;27;45353;-58
2021/11/19 01:45:31;;;;;;;;;24.80;23.20;;;;;12.02;64.22;102670.03;2099359;28;45871;-59
2021/11/19 01:46:32;;;;;;;;;28.80;27.20;;;;;12.01;64.23;102673.56;2099127;28;47267;-59
2021/11/19 01:47:35;;;;;;;;;30.20;26.80;;;;;12.02;64.25;102670.03;2096310;27;45309;-58
2021/11/19 01:48:41;;;;;;;;;27.40;26.40;;;;;12.01;64.06;102677.13;2100534;27;48161;-59
2021/11/19 01:49:41;;;;;;;;;27.40;26.40;;;;;12.01;64.29;102662.94;2098651;27;48238;-59
2021/11/19 01:51:02;;;;;;;;;29.00;27.75;;;;;12.02;64.18;102673.56;2095613;28;47157;-59
2021/11/19 01:52:11;;;;;;;;;25.80;25.00;;;;;12.02;63.96;102675.34;2096759;28;47093;-60
2021/11/19 01:53:17;;;;;;;;;30.80;25.00;;;;;12.01;64.10;102666.47;2098674;28;46603;-58
2021/11/19 01:54:41;;;;;;;;;24.00;22.80;;;;;12.01;64.29;102668.25;2095763;27;47467;-58
2021/11/19 01:56:11;;;;;;;;;31.80;25.60;;;;;12.01;64.22;102666.47;2095178;27;46749;-60
2021/11/19 01:57:20;;;;;;;;;27.20;25.20;;;;;12.01;63.92;102663.81;2086247;28;47096;-58
2021/11/19 01:58:25;;;;;;;;;27.00;24.60;;;;;12.00;63.95;102661.16;2091613;28;46363;-59
2021/11/19 01:59:32;;;;;;;;;28.40;26.40;;;;;12.00;63.91;102663.81;2097719;28;45277;-59
2021/11/19 02:00:51;;;;;;;;;27.20;24.60;;;;;12.00;63.99;102664.72;2095334;27;47556;-59
2021/11/19 02:02:09;;;;;;;;;26.40;22.80;;;;;11.99;64.06;102662.03;2092098;28;48302;-59
2021/11/19 02:03:12;;;;;;;;;26.20;26.20;;;;;11.99;64.11;102662.03;2097620;27;48245;-59
2021/11/19 02:04:18;;;;;;;;;25.80;24.20;;;;;11.99;64.01;102664.69;2094147;28;48233;-60
2021/11/19 02:05:22;;;;;;;;;25.20;24.60;;;;;11.98;64.24;102663.81;2108133;27;47247;-60
2021/11/19 02:06:31;;;;;;;;;25.80;25.60;;;;;11.99;64.19;102670.03;2107296;27;48163;-60
2021/11/19 02:07:36;;;;;;;;;29.40;21.40;;;;;11.99;64.06;102664.69;2094315;28;47426;-60
2021/11/19 02:08:41;;;;;;;;;27.20;24.60;;;;;11.98;64.02;102660.28;2094087;28;47188;-59
2021/11/19 02:10:20;;;;;;;;;24.00;23.60;;;;;11.96;64.03;102660.28;2083914;28;47442;-59
2021/11/19 02:11:43;;;;;;;;;19.60;19.60;;;;;11.96;64.22;102662.94;2088843;28;47485;-60
2021/11/19 02:13:11;;;;;;;;;24.40;22.20;;;;;11.97;63.93;102661.16;2091916;28;47322;-60
2021/11/19 02:14:35;;;;;;;;;25.80;22.40;;;;;11.96;64.18;102657.59;2094373;27;47628;-60
2021/11/19 02:15:46;;;;;;;;;25.60;24.60;;;;;11.97;64.19;102658.50;2091293;28;47972;-60
2021/11/19 02:16:56;;;;;;;;;27.20;24.20;;;;;11.96;64.10;102662.03;2093530;28;46144;-60
2021/11/19 02:18:01;;;;;;;;;29.40;25.20;;;;;11.96;64.08;102657.59;2092274;28;47723;-60
2021/11/19 02:19:13;;;;;;;;;28.20;25.00;;;;;11.96;64.07;102654.94;2093727;28;48318;-59
2021/11/19 02:20:20;;;;;;;;;28.40;25.20;;;;;11.96;64.04;102654.06;2093736;28;45317;-60
2021/11/19 02:21:25;;;;;;;;;28.80;23.60;;;;;11.96;64.03;102657.59;2091880;28;47631;-59
2021/11/19 02:22:31;;;;;;;;;25.80;25.40;;;;;11.97;64.20;102658.50;2090714;28;47357;-60
2021/11/19 02:24:04;;;;;;;;;29.20;25.20;;;;;11.97;64.09;102653.16;2090733;28;48623;-60
2021/11/19 02:25:11;;;;;;;;;28.40;26.00;;;;;11.98;64.11;102657.59;2085508;28;47463;-59
2021/11/19 02:26:19;;;;;;;;;24.80;23.60;;;;;11.98;64.12;102657.59;2091023;28;47482;-60
2021/11/19 02:27:49;;;;;;;;;28.40;25.40;;;;;11.99;64.26;102654.94;2083682;28;46090;-59
2021/11/19 02:28:53;;;;;;;;;29.80;24.60;;;;;11.99;64.09;102662.03;2081999;28;47414;-60
2021/11/19 02:30:01;;;;;;;;;21.60;20.60;;;;;12.00;63.91;102669.13;2088866;27;46823;-59
2021/11/19 02:31:19;;;;;;;;;23.80;21.80;;;;;11.98;64.26;102663.81;2091814;28;47420;-59
2021/11/19 02:32:31;;;;;;;;;31.80;26.20;;;;;11.98;64.19;102660.28;2092633;28;48214;-59
2021/11/19 02:33:32;;;;;;;;;28.40;24.80;;;;;11.98;64.14;102655.84;2092019;28;48154;-59
2021/11/19 02:34:34;;;;;;;;;28.80;28.00;;;;;12.00;64.19;102666.47;2092130;28;47453;-59
2021/11/19 02:35:48;;;;;;;;;29.00;24.20;;;;;12.01;64.21;102662.94;2091816;28;46908;-60
2021/11/19 02:37:00;;;;;;;;;46.00;38.00;;;;;12.00;63.95;102661.16;2108214;27;47489;-60
2021/11/19 02:38:06;;;;;;;;;37.20;31.60;;;;;12.00;64.13;102661.16;2105130;27;48435;-59
2021/11/19 02:39:14;;;;;;;;;30.20;28.00;;;;;12.00;64.19;102658.50;2091613;28;47624;-60
2021/11/19 02:40:19;;;;;;;;;29.80;28.60;;;;;12.00;64.16;102654.06;2092038;28;48278;-60
2021/11/19 02:41:22;;;;;;;;;30.00;26.60;;;;;12.01;64.11;102657.63;2091600;28;47217;-60
2021/11/19 02:42:28;;;;;;;;;24.40;23.20;;;;;12.01;64.11;102660.28;2091949;28;47471;-59
2021/11/19 02:43:34;;;;;;;;;24.00;22.00;;;;;12.01;64.03;102650.50;2099692;28;47480;-60
2021/11/19 02:44:36;;;;;;;;;26.20;24.60;;;;;12.02;64.02;102648.75;2098015;28;47410;-60
2021/11/19 02:45:44;;;;;;;;;24.80;22.00;;;;;12.03;64.06;102653.19;2091224;27;47376;-59
2021/11/19 02:46:49;;;;;;;;;27.60;26.60;;;;;12.03;64.12;102655.84;2092161;28;47042;-60
2021/11/19 02:47:50;;;;;;;;;25.40;25.40;;;;;12.03;63.95;102651.41;2084913;28;48346;-60
2021/11/19 02:48:51;;;;;;;;;25.75;22.25;;;;;12.04;64.14;102654.94;2082647;28;47433;-60
2021/11/19 02:49:52;;;;;;;;;27.75;24.75;;;;;12.05;63.98;102654.06;2082910;28;47167;-60
2021/11/19 02:50:55;;;;;;;;;26.40;24.00;;;;;12.05;64.10;102656.72;2083524;28;45445;-60
2021/11/19 02:51:55;;;;;;;;;21.40;18.40;;;;;12.06;64.09;102655.84;2091371;28;45382;-60
2021/11/19 02:52:59;;;;;;;;;22.25;21.00;;;;;12.07;64.16;102661.19;2099252;28;47345;-59
2021/11/19 02:54:03;;;;;;;;;28.00;24.20;;;;;12.06;64.27;102654.06;2090081;28;45288;-59
2021/11/19 02:55:09;;;;;;;;;28.00;23.60;;;;;12.07;63.95;102655.88;2074817;28;48241;-60
2021/11/19 02:56:10;;;;;;;;;32.20;27.20;;;;;12.07;64.12;102657.66;2084387;28;47361;-60
2021/11/19 02:57:11;;;;;;;;;29.00;24.80;;;;;12.06;63.92;102654.06;2091701;28;48373;-59
2021/11/19 02:58:17;;;;;;;;;26.00;22.40;;;;;12.08;64.00;102654.09;2092251;28;46250;-60
2021/11/19 02:59:19;;;;;;;;;26.20;23.00;;;;;12.07;63.95;102652.31;2091754;28;47266;-60
2021/11/19 03:00:25;;;;;;;;;26.80;23.20;;;;;12.07;64.03;102658.53;2091601;28;47536;-60
2021/11/19 03:01:32;;;;;;;;;27.60;27.20;;;;;12.08;64.05;102654.09;2091618;28;45403;-60
2021/11/19 03:02:33;;;;;;;;;29.80;23.60;;;;;12.08;63.98;102654.09;2095397;28;46179;-60
2021/11/19 03:03:36;;;;;;;;;25.00;23.75;;;;;12.08;63.90;102647.00;2093957;27;45439;-60
2021/11/19 03:04:41;;;;;;;;;29.80;27.00;;;;;12.08;63.89;102651.44;2092695;28;47264;-60
2021/11/19 03:05:41;;;;;;;;;25.20;22.60;;;;;12.08;64.03;102651.44;2092657;28;47090;-60
2021/11/19 03:06:47;;;;;;;;;26.75;25.25;;;;;12.09;64.04;102655.88;2091722;28;47461;-59
2021/11/19 03:07:48;;;;;;;;;27.00;25.00;;;;;12.11;64.00;102647.88;2092606;28;48095;-60
2021/11/19 03:08:48;;;;;;;;;30.75;28.00;;;;;12.10;64.04;102643.47;2092205;27;47187;-60
2021/11/19 03:09:54;;;;;;;;;27.50;25.50;;;;;12.11;64.04;102647.88;2092012;27;47298;-60
2021/11/19 03:10:56;;;;;;;;;25.20;23.60;;;;;12.11;63.87;102650.56;2090145;28;47092;-60
2021/11/19 03:11:58;;;;;;;;;22.20;22.20;;;;;12.10;64.04;102649.66;2084887;28;48398;-60
2021/11/19 03:13:01;;;;;;;;;28.60;28.00;;;;;12.11;63.99;102654.09;2091841;28;47640;-60
2021/11/19 03:14:05;;;;;;;;;28.40;25.00;;;;;12.11;64.15;102650.56;2092090;28;47024;-59
2021/11/19 03:15:14;;;;;;;;;23.20;23.00;;;;;12.12;64.01;102649.66;2091222;28;48188;-60
2021/11/19 03:16:15;;;;;;;;;24.20;21.00;;;;;12.12;63.70;102649.66;2092111;28;47946;-60
2021/11/19 03:17:18;;;;;;;;;23.20;21.80;;;;;12.12;63.84;102642.56;2092208;28;47531;-60
2021/11/19 03:18:21;;;;;;;;;23.80;23.80;;;;;12.12;63.90;102644.34;2092353;28;46138;-60
2021/11/19 03:19:23;;;;;;;;;27.00;24.20;;;;;12.13;63.92;102640.78;2099611;28;47360;-59
2021/11/19 03:20:25;;;;;;;;;28.60;26.60;;;;;12.13;63.90;102638.13;2100067;27;48112;-59
2021/11/19 03:21:26;;;;;;;;;30.20;26.80;;;;;12.12;63.66;102642.56;2091538;27;47256;-60
2021/11/19 03:22:28;;;;;;;;;25.00;24.75;;;;;12.12;63.80;102637.25;2092627;28;48532;-59
2021/11/19 03:23:31;;;;;;;;;22.40;22.20;;;;;12.11;64.17;102630.16;2091770;28;48783;-59
2021/11/19 03:24:35;;;;;;;;;23.40;20.40;;;;;12.12;63.95;102633.69;2091959;27;48105;-59
2021/11/19 03:25:38;;;;;;;;;24.40;24.00;;;;;12.12;63.69;102631.91;2091333;28;47997;-59
2021/11/19 03:26:40;;;;;;;;;25.80;23.40;;;;;12.13;63.81;102636.34;2087294;28;47366;-59
2021/11/19 03:27:42;;;;;;;;;25.20;22.60;;;;;12.13;63.92;102641.69;2083427;28;47413;-59
2021/11/19 03:28:44;;;;;;;;;29.00;24.80;;;;;12.14;63.72;102631.91;2084521;28;45474;-59
2021/11/19 03:29:46;;;;;;;;;16.00;13.80;;;;;12.14;63.82;102632.81;2084483;28;47156;-59
2021/11/19 03:30:50;;;;;;;;;28.80;25.60;;;;;12.14;63.71;102637.25;2087378;27;45318;-58
2021/11/19 03:31:52;;;;;;;;;28.00;27.20;;;;;12.13;63.85;102630.16;2088167;28;47212;-59
2021/11/19 03:32:54;;;;;;;;;24.40;23.40;;;;;12.12;63.69;102631.91;2091217;28;47716;-59
2021/11/19 03:33:55;;;;;;;;;27.60;24.40;;;;;12.12;63.84;102634.59;2099453;28;47425;-58
2021/11/19 03:34:57;;;;;;;;;26.00;25.00;;;;;12.13;63.85;102631.03;2088414;28;48236;-59
2021/11/19 03:35:58;;;;;;;;;26.40;25.00;;;;;12.14;63.75;102631.91;2083276;28;46146;-59
2021/11/19 03:36:58;;;;;;;;;26.20;23.60;;;;;12.12;63.74;102637.25;2090682;28;47832;-59
2021/11/19 03:38:00;;;;;;;;;27.00;23.00;;;;;12.13;63.79;102636.34;2091574;28;46668;-59
2021/11/19 03:39:01;;;;;;;;;24.00;22.00;;;;;12.13;63.84;102633.69;2083831;28;48773;-59
2021/11/19 03:40:03;;;;;;;;;29.00;27.50;;;;;12.13;63.75;102631.03;2089379;28;47379;-59
2021/11/19 03:41:06;;;;;;;;;26.40;23.60;;;;;12.15;63.81;102631.03;2091392;28;47509;-59
2021/11/19 03:42:10;;;;;;;;;25.40;23.60;;;;;12.14;63.92;102631.91;2091770;28;47190;-59
2021/11/19 03:43:15;;;;;;;;;22.40;20.60;;;;;12.14;63.79;102624.81;2090993;28;47485;-59
2021/11/19 03:44:21;;;;;;;;;28.00;26.00;;;;;12.15;63.83;102629.25;2088120;28;48533;-59
2021/11/19 03:45:25;;;;;;;;;25.40;25.40;;;;;12.16;63.98;102627.47;2091051;28;47169;-60
2021/11/19 03:46:39;;;;;;;;;26.00;23.60;;;;;12.18;64.05;102631.03;2091453;28;48309;-58
2021/11/19 03:47:43;;;;;;;;;24.60;22.60;;;;;12.16;63.83;102628.38;2091836;28;47104;-59
2021/11/19 03:48:43;;;;;;;;;24.20;20.80;;;;;12.17;63.97;102629.25;2091420;28;47347;-59
2021/11/19 03:49:46;;;;;;;;;27.25;27.00;;;;;12.17;63.64;102635.47;2091271;28;45107;-59
2021/11/19 03:50:53;;;;;;;;;17.40;12.40;;;;;12.17;63.79;102630.16;2090792;28;47482;-59
2021/11/19 03:52:16;;;;;;;;;28.20;26.60;;;;;12.18;63.85;102634.59;2091914;28;47462;-60
2021/11/19 03:53:17;;;;;;;;;25.80;22.00;;;;;12.18;63.64;102634.59;2091537;28;46301;-60
2021/11/19 03:54:21;;;;;;;;;21.80;20.80;;;;;12.18;63.69;102637.25;2099254;28;48472;-60
2021/11/19 03:55:27;;;;;;;;;27.20;24.20;;;;;12.19;63.71;102631.03;2098995;28;47867;-59
2021/11/19 03:56:28;;;;;;;;;26.20;23.60;;;;;12.17;63.88;102630.16;2091900;28;46573;-59
2021/11/19 03:57:29;;;;;;;;;24.00;23.40;;;;;12.18;63.74;102634.59;2091378;28;47218;-60
2021/11/19 03:58:32;;;;;;;;;24.40;22.40;;;;;12.18;63.68;102628.38;2099278;28;47198;-60
2021/11/19 03:59:33;;;;;;;;;29.20;26.00;;;;;12.17;63.73;102626.59;2098700;28;47302;-60
2021/11/19 04:00:41;;;;;;;;;28.00;26.00;;;;;12.17;63.63;102624.81;2090110;28;48302;-60
2021/11/19 04:01:43;;;;;;;;;27.00;23.80;;;;;12.17;63.62;102635.47;2090810;28;48225;-60
2021/11/19 04:02:45;;;;;;;;;25.60;24.60;;;;;12.18;63.62;102633.69;2090377;28;46480;-59
2021/11/19 04:03:47;;;;;;;;;28.20;23.80;;;;;12.18;63.57;102631.91;2091399;27;45307;-60
2021/11/19 04:04:47;;;;;;;;;25.80;24.80;;;;;12.18;63.75;102631.03;2090046;28;47282;-60
2021/11/19 04:05:49;;;;;;;;;30.25;26.75;;;;;12.18;63.69;102636.34;2091003;28;47343;-60
2021/11/19 04:06:51;;;;;;;;;27.20;23.60;;;;;12.18;63.76;102634.59;2090570;28;48076;-60
2021/11/19 04:07:52;;;;;;;;;29.00;27.00;;;;;12.18;63.75;102631.03;2099523;28;48146;-59
2021/11/19 04:08:53;;;;;;;;;28.25;26.25;;;;;12.17;63.57;102632.81;2091482;27;47034;-60
2021/11/19 04:09:54;;;;;;;;;24.20;21.40;;;;;12.17;63.66;102631.91;2099410;28;46951;-59
2021/11/19 04:10:55;;;;;;;;;30.00;26.75;;;;;12.17;63.59;102631.91;2098084;28;48840;-60
2021/11/19 04:11:57;;;;;;;;;27.80;23.80;;;;;12.18;63.57;102631.03;2091449;28;45537;-60
2021/11/19 04:12:57;;;;;;;;;30.80;23.00;;;;;12.17;63.71;102634.59;2099227;28;47107;-60
2021/11/19 04:13:58;;;;;;;;;24.00;24.00;;;;;12.16;63.71;102639.03;2092737;27;47263;-60
2021/11/19 04:15:00;;;;;;;;;30.00;29.00;;;;;12.16;63.68;102631.03;2084315;28;48322;-59
2021/11/19 04:16:05;;;;;;;;;28.80;25.60;;;;;12.16;63.46;102635.47;2091359;27;47247;-60
2021/11/19 04:17:06;;;;;;;;;22.80;20.00;;;;;12.15;63.56;102642.56;2091257;28;47280;-60
2021/11/19 04:18:07;;;;;;;;;29.25;23.25;;;;;12.16;63.44;102632.81;2091116;28;47442;-60
2021/11/19 04:19:10;;;;;;;;;26.40;25.40;;;;;12.16;63.68;102641.69;2091565;28;47133;-59
2021/11/19 04:20:13;;;;;;;;;26.80;24.60;;;;;12.16;63.60;102640.78;2091185;28;48474;-60
2021/11/19 04:21:15;;;;;;;;;26.60;26.00;;;;;12.16;63.67;102638.13;2091269;28;47501;-60
2021/11/19 04:22:18;;;;;;;;;25.40;23.80;;;;;12.16;63.71;102641.69;2094997;27;46910;-60
2021/11/19 04:23:19;;;;;;;;;24.80;21.00;;;;;12.15;63.70;102642.56;2086695;28;48288;-60
2021/11/19 04:24:25;;;;;;;;;21.00;21.00;;;;;12.15;63.52;102642.56;2089817;28;48095;-60
2021/11/19 04:25:27;;;;;;;;;28.60;25.00;;;;;12.15;63.69;102639.91;2090260;28;46351;-60
2021/11/19 04:26:29;;;;;;;;;23.20;22.40;;;;;12.16;63.73;102639.03;2090998;27;47185;-61
2021/11/19 04:27:29;;;;;;;;;25.60;23.20;;;;;12.15;63.75;102637.25;2095718;28;46340;-59
2021/11/19 04:28:30;;;;;;;;;32.00;30.50;;;;;12.15;63.69;102639.91;2091344;28;45349;-60
2021/11/19 04:29:31;;;;;;;;;20.60;20.60;;;;;12.16;63.73;102640.78;2095164;28;47261;-59
2021/11/19 04:30:36;;;;;;;;;26.50;24.25;;;;;12.18;63.49;102639.03;2093520;28;47408;-60
2021/11/19 04:31:36;;;;;;;;;31.40;25.80;;;;;12.16;63.59;102638.13;2091326;27;47294;-60
2021/11/19 04:32:37;;;;;;;;;22.50;22.50;;;;;12.17;63.79;102640.78;2095769;28;47017;-60
2021/11/19 04:33:38;;;;;;;;;24.50;24.00;;;;;12.17;63.59;102637.25;2093783;28;46997;-60
2021/11/19 04:34:40;;;;;;;;;24.80;20.60;;;;;12.17;63.60;102635.47;2089556;27;48228;-59
2021/11/19 04:35:41;;;;;;;;;28.40;26.00;;;;;12.17;63.72;102626.59;2093148;28;48303;-59
2021/11/19 04:36:43;;;;;;;;;24.00;23.25;;;;;12.17;63.67;102632.81;2090434;28;47345;-59
2021/11/19 04:37:44;;;;;;;;;23.20;22.80;;;;;12.16;63.76;102639.03;2090679;27;47238;-59
2021/11/19 04:38:44;;;;;;;;;24.40;23.00;;;;;12.18;63.85;102633.69;2095247;28;47124;-59
2021/11/19 04:39:45;;;;;;;;;25.25;25.00;;;;;12.17;63.81;102637.25;2091353;28;47955;-59
2021/11/19 04:40:46;;;;;;;;;31.25;28.00;;;;;12.17;63.55;102634.59;2094917;28;46309;-59
2021/11/19 04:41:48;;;;;;;;;24.80;22.20;;;;;12.16;63.78;102633.69;2094230;27;48404;-59
2021/11/19 04:42:49;;;;;;;;;21.80;21.20;;;;;12.17;63.73;102637.25;2099974;27;46977;-59
2021/11/19 04:43:49;;;;;;;;;27.00;25.00;;;;;12.17;63.62;102640.78;2094863;28;47564;-59
2021/11/19 04:44:51;;;;;;;;;25.50;24.00;;;;;12.17;63.61;102635.47;2091749;28;45409;-63
2021/11/19 04:45:53;;;;;;;;;24.60;23.00;;;;;12.18;63.64;102637.25;2093439;27;47413;-60
2021/11/19 04:46:53;;;;;;;;;24.00;20.80;;;;;12.17;63.69;102630.16;2102931;27;48165;-60
2021/11/19 04:47:54;;;;;;;;;24.50;23.00;;;;;12.18;63.66;102631.03;2099154;27;48768;-59
2021/11/19 04:48:55;;;;;;;;;23.40;22.60;;;;;12.18;63.53;102639.91;2094799;27;46225;-59
2021/11/19 04:49:55;;;;;;;;;26.00;21.75;;;;;12.18;63.78;102637.25;2094927;28;47638;-60
2021/11/19 04:50:56;;;;;;;;;26.00;24.25;;;;;12.18;63.73;102637.25;2091307;27;46195;-59
2021/11/19 04:51:56;;;;;;;;;26.50;25.50;;;;;12.19;63.76;102635.47;2078178;28;47185;-60